sensor_id;sensor_type;location;lat;lon;timestamp;pressure;altitude;pressure_sealevel;temperature;humidity
36014;BME280;22275;43.208;27.620;2023-08-12T00:02:02;101610.53;;;22.71;100.00
36014;BME280;22275;43.208;27.620;2023-08-12T00:04:29;101603.72;;;22.77;100.00
36014;BME280;22275;43.208;27.620;2023-08-12T00:06:58;101595.34;;;22.80;100.00
36014;BME280;22275;43.208;27.620;2023-08-12T00:09:26;101605.13;;;22.81;100.00
36014;BME280;22275;43.208;27.620;2023-08-12T00:11:55;101605.41;;;22.78;100.00
36014;BME280;22275;43.208;27.620;2023-08-12T00:14:24;101595.75;;;22.85;100.00
36014;BME280;22275;43.208;27.620;2023-08-12T00:16:51;101606.63;;;22.93;100.00
36014;BME280;22275;43.208;27.620;2023-08-12T00:19:18;101595.75;;;22.85;100.00
36014;BME280;22275;43.208;27.620;2023-08-12T00:21:47;101605.31;;;22.97;100.00
36014;BME280;22275;43.208;27.620;2023-08-12T00:24:15;101593.38;;;23.09;100.00
36014;BME280;22275;43.208;27.620;2023-08-12T00:26:45;101602.31;;;23.00;100.00
36014;BME280;22275;43.208;27.620;2023-08-12T00:29:12;101602.22;;;22.92;100.00
36014;BME280;22275;43.208;27.620;2023-08-12T00:31:41;101602.03;;;22.76;100.00
36014;BME280;22275;43.208;27.620;2023-08-12T00:34:10;101597.59;;;23.12;100.00
36014;BME280;22275;43.208;27.620;2023-08-12T00:36:40;101593.34;;;22.45;100.00
36014;BME280;22275;43.208;27.620;2023-08-12T00:39:07;101599.75;;;22.34;100.00
36014;BME280;22275;43.208;27.620;2023-08-12T00:41:36;101597.06;;;22.34;100.00
36014;BME280;22275;43.208;27.620;2023-08-12T00:44:04;101590.63;;;22.18;100.00
36014;BME280;22275;43.208;27.620;2023-08-12T00:46:32;101597.94;;;22.25;100.00
36014;BME280;22275;43.208;27.620;2023-08-12T00:49:00;101608.09;;;22.31;100.00
36014;BME280;22275;43.208;27.620;2023-08-12T00:51:27;101589.75;;;22.17;100.00
36014;BME280;22275;43.208;27.620;2023-08-12T00:53:56;101596.38;;;22.32;100.00
36014;BME280;22275;43.208;27.620;2023-08-12T00:56:25;101592.69;;;22.33;100.00
36014;BME280;22275;43.208;27.620;2023-08-12T00:58:56;101595.69;;;22.30;100.00
36014;BME280;22275;43.208;27.620;2023-08-12T01:01:23;101601.59;;;22.34;100.00
36014;BME280;22275;43.208;27.620;2023-08-12T01:03:53;101596.84;;;22.09;100.00
36014;BME280;22275;43.208;27.620;2023-08-12T01:06:20;101596.31;;;21.96;100.00
36014;BME280;22275;43.208;27.620;2023-08-12T01:08:47;101602.03;;;22.20;100.00
36014;BME280;22275;43.208;27.620;2023-08-12T01:11:20;101601.00;;;21.94;100.00
36014;BME280;22275;43.208;27.620;2023-08-12T01:13:52;101598.28;;;21.84;100.00
36014;BME280;22275;43.208;27.620;2023-08-12T01:16:27;101593.75;;;21.94;100.00
36014;BME280;22275;43.208;27.620;2023-08-12T01:18:56;101608.66;;;22.25;100.00
36014;BME280;22275;43.208;27.620;2023-08-12T01:21:24;101610.88;;;22.40;100.00
36014;BME280;22275;43.208;27.620;2023-08-12T01:23:57;101613.41;;;22.51;100.00
36014;BME280;22275;43.208;27.620;2023-08-12T01:26:24;101589.63;;;22.65;100.00
36014;BME280;22275;43.208;27.620;2023-08-12T01:28:54;101614.63;;;23.03;100.00
36014;BME280;22275;43.208;27.620;2023-08-12T01:31:27;101606.03;;;23.17;100.00
36014;BME280;22275;43.208;27.620;2023-08-12T01:34:04;101589.59;;;23.20;100.00
36014;BME280;22275;43.208;27.620;2023-08-12T01:36:36;101614.75;;;23.28;100.00
36014;BME280;22275;43.208;27.620;2023-08-12T01:39:06;101610.44;;;22.90;100.00
36014;BME280;22275;43.208;27.620;2023-08-12T01:41:36;101614.47;;;22.77;100.00
36014;BME280;22275;43.208;27.620;2023-08-12T01:44:05;101602.72;;;22.41;100.00
36014;BME280;22275;43.208;27.620;2023-08-12T01:46:32;101608.94;;;22.42;100.00
36014;BME280;22275;43.208;27.620;2023-08-12T01:48:59;101612.38;;;22.24;100.00
36014;BME280;22275;43.208;27.620;2023-08-12T01:51:27;101616.06;;;22.04;100.00
36014;BME280;22275;43.208;27.620;2023-08-12T01:53:57;101609.16;;;21.92;100.00
36014;BME280;22275;43.208;27.620;2023-08-12T01:56:25;101620.88;;;21.82;100.00
36014;BME280;22275;43.208;27.620;2023-08-12T01:58:53;101611.56;;;21.95;100.00
36014;BME280;22275;43.208;27.620;2023-08-12T02:01:21;101618.72;;;22.23;100.00
36014;BME280;22275;43.208;27.620;2023-08-12T02:03:48;101622.25;;;22.14;100.00
36014;BME280;22275;43.208;27.620;2023-08-12T02:06:15;101616.88;;;22.24;100.00
36014;BME280;22275;43.208;27.620;2023-08-12T02:08:42;101624.47;;;22.48;100.00
36014;BME280;22275;43.208;27.620;2023-08-12T02:11:14;101616.44;;;22.84;100.00
36014;BME280;22275;43.208;27.620;2023-08-12T02:13:44;101615.13;;;23.16;100.00
36014;BME280;22275;43.208;27.620;2023-08-12T02:16:13;101606.34;;;23.14;100.00
36014;BME280;22275;43.208;27.620;2023-08-12T02:18:41;101615.63;;;23.19;100.00
36014;BME280;22275;43.208;27.620;2023-08-12T02:21:09;101617.09;;;23.14;100.00
36014;BME280;22275;43.208;27.620;2023-08-12T02:23:36;101609.78;;;23.06;100.00
36014;BME280;22275;43.208;27.620;2023-08-12T02:26:03;101617.69;;;23.35;100.00
36014;BME280;22275;43.208;27.620;2023-08-12T02:28:30;101629.28;;;23.08;100.00
36014;BME280;22275;43.208;27.620;2023-08-12T02:30:59;101627.38;;;23.01;100.00
36014;BME280;22275;43.208;27.620;2023-08-12T02:33:27;101623.81;;;22.73;100.00
36014;BME280;22275;43.208;27.620;2023-08-12T02:35:54;101626.50;;;23.00;100.00
36014;BME280;22275;43.208;27.620;2023-08-12T02:38:21;101638.88;;;23.11;100.00
36014;BME280;22275;43.208;27.620;2023-08-12T02:40:49;101632.66;;;23.10;100.00
36014;BME280;22275;43.208;27.620;2023-08-12T02:43:16;101641.16;;;23.15;100.00
36014;BME280;22275;43.208;27.620;2023-08-12T02:45:44;101642.78;;;22.62;100.00
36014;BME280;22275;43.208;27.620;2023-08-12T02:48:13;101641.94;;;22.52;100.00
36014;BME280;22275;43.208;27.620;2023-08-12T02:50:40;101649.31;;;22.50;100.00
36014;BME280;22275;43.208;27.620;2023-08-12T02:53:10;101643.66;;;22.53;100.00
36014;BME280;22275;43.208;27.620;2023-08-12T02:55:37;101654.09;;;22.65;100.00
36014;BME280;22275;43.208;27.620;2023-08-12T02:58:04;101652.75;;;22.79;100.00
36014;BME280;22275;43.208;27.620;2023-08-12T03:00:32;101650.59;;;22.92;100.00
36014;BME280;22275;43.208;27.620;2023-08-12T03:02:59;101644.69;;;22.79;100.00
36014;BME280;22275;43.208;27.620;2023-08-12T03:05:28;101632.00;;;22.81;100.00
36014;BME280;22275;43.208;27.620;2023-08-12T03:07:55;101648.59;;;22.94;100.00
36014;BME280;22275;43.208;27.620;2023-08-12T03:10:25;101648.41;;;22.78;100.00
36014;BME280;22275;43.208;27.620;2023-08-12T03:12:53;101648.59;;;22.67;100.00
36014;BME280;22275;43.208;27.620;2023-08-12T03:15:20;101649.69;;;22.74;100.00
36014;BME280;22275;43.208;27.620;2023-08-12T03:17:48;101646.47;;;22.51;100.00
36014;BME280;22275;43.208;27.620;2023-08-12T03:20:15;101660.16;;;22.58;100.00
36014;BME280;22275;43.208;27.620;2023-08-12T03:22:44;101636.97;;;22.57;100.00
36014;BME280;22275;43.208;27.620;2023-08-12T03:25:11;101650.75;;;22.34;100.00
36014;BME280;22275;43.208;27.620;2023-08-12T03:27:40;101639.16;;;22.34;100.00
36014;BME280;22275;43.208;27.620;2023-08-12T03:30:09;101649.06;;;23.17;100.00
36014;BME280;22275;43.208;27.620;2023-08-12T03:32:36;101652.91;;;22.87;100.00
36014;BME280;22275;43.208;27.620;2023-08-12T03:35:04;101651.44;;;22.93;100.00
36014;BME280;22275;43.208;27.620;2023-08-12T03:37:31;101655.47;;;23.06;100.00
36014;BME280;22275;43.208;27.620;2023-08-12T03:40:00;101657.28;;;23.15;100.00
36014;BME280;22275;43.208;27.620;2023-08-12T03:42:28;101642.34;;;23.03;100.00
36014;BME280;22275;43.208;27.620;2023-08-12T03:44:56;101657.28;;;23.42;100.00
36014;BME280;22275;43.208;27.620;2023-08-12T03:47:23;101669.00;;;23.41;100.00
36014;BME280;22275;43.208;27.620;2023-08-12T03:49:54;101669.09;;;23.22;100.00
36014;BME280;22275;43.208;27.620;2023-08-12T03:52:25;101671.41;;;23.17;100.00
36014;BME280;22275;43.208;27.620;2023-08-12T03:54:52;101664.75;;;23.49;100.00
36014;BME280;22275;43.208;27.620;2023-08-12T03:57:21;101674.44;;;23.32;100.00
36014;BME280;22275;43.208;27.620;2023-08-12T03:59:48;101684.34;;;23.31;100.00
36014;BME280;22275;43.208;27.620;2023-08-12T04:02:16;101675.03;;;23.26;100.00
36014;BME280;22275;43.208;27.620;2023-08-12T04:04:43;101678.97;;;23.31;100.00
36014;BME280;22275;43.208;27.620;2023-08-12T04:07:10;101667.72;;;23.45;100.00
36014;BME280;22275;43.208;27.620;2023-08-12T04:09:37;101664.38;;;23.61;100.00
36014;BME280;22275;43.208;27.620;2023-08-12T04:12:05;101666.53;;;23.75;100.00
36014;BME280;22275;43.208;27.620;2023-08-12T04:14:34;101668.50;;;23.73;100.00
36014;BME280;22275;43.208;27.620;2023-08-12T04:17:04;101664.47;;;23.69;100.00
36014;BME280;22275;43.208;27.620;2023-08-12T04:19:31;101668.97;;;23.69;100.00
36014;BME280;22275;43.208;27.620;2023-08-12T04:21:59;101670.88;;;23.59;100.00
36014;BME280;22275;43.208;27.620;2023-08-12T04:24:26;101677.34;;;23.66;100.00
36014;BME280;22275;43.208;27.620;2023-08-12T04:26:53;101674.13;;;23.80;100.00
36014;BME280;22275;43.208;27.620;2023-08-12T04:29:20;101678.81;;;23.95;100.00
36014;BME280;22275;43.208;27.620;2023-08-12T04:31:49;101686.16;;;24.21;100.00
36014;BME280;22275;43.208;27.620;2023-08-12T04:34:19;101686.09;;;24.38;100.00
36014;BME280;22275;43.208;27.620;2023-08-12T04:36:46;101685.63;;;24.69;100.00
36014;BME280;22275;43.208;27.620;2023-08-12T04:39:13;101673.53;;;24.73;100.00
36014;BME280;22275;43.208;27.620;2023-08-12T04:41:43;101686.44;;;24.87;100.00
36014;BME280;22275;43.208;27.620;2023-08-12T04:44:10;101686.28;;;24.88;100.00
36014;BME280;22275;43.208;27.620;2023-08-12T04:46:38;101688.75;;;25.15;100.00
36014;BME280;22275;43.208;27.620;2023-08-12T04:49:06;101692.66;;;25.21;100.00
36014;BME280;22275;43.208;27.620;2023-08-12T04:51:35;101680.22;;;25.28;100.00
36014;BME280;22275;43.208;27.620;2023-08-12T04:54:03;101693.13;;;25.50;100.00
36014;BME280;22275;43.208;27.620;2023-08-12T04:56:31;101685.84;;;25.43;100.00
36014;BME280;22275;43.208;27.620;2023-08-12T04:58:58;101691.94;;;25.03;100.00
36014;BME280;22275;43.208;27.620;2023-08-12T05:01:25;101690.47;;;24.83;100.00
36014;BME280;22275;43.208;27.620;2023-08-12T05:03:53;101693.06;;;25.00;100.00
36014;BME280;22275;43.208;27.620;2023-08-12T05:06:21;101675.44;;;25.14;100.00
36014;BME280;22275;43.208;27.620;2023-08-12T05:08:50;101695.94;;;25.41;100.00
36014;BME280;22275;43.208;27.620;2023-08-12T05:11:17;101691.66;;;25.22;100.00
36014;BME280;22275;43.208;27.620;2023-08-12T05:13:44;101682.06;;;25.28;100.00
36014;BME280;22275;43.208;27.620;2023-08-12T05:16:17;101684.13;;;25.34;100.00
36014;BME280;22275;43.208;27.620;2023-08-12T05:18:44;101690.78;;;25.63;100.00
36014;BME280;22275;43.208;27.620;2023-08-12T05:21:12;101678.50;;;25.19;100.00
36014;BME280;22275;43.208;27.620;2023-08-12T05:23:41;101681.78;;;24.97;100.00
36014;BME280;22275;43.208;27.620;2023-08-12T05:26:08;101686.47;;;24.95;100.00
36014;BME280;22275;43.208;27.620;2023-08-12T05:28:36;101684.16;;;25.00;100.00
36014;BME280;22275;43.208;27.620;2023-08-12T05:31:03;101677.25;;;24.97;100.00
36014;BME280;22275;43.208;27.620;2023-08-12T05:33:31;101672.56;;;25.07;100.00
36014;BME280;22275;43.208;27.620;2023-08-12T05:35:58;101674.59;;;25.13;100.00
36014;BME280;22275;43.208;27.620;2023-08-12T05:38:26;101661.06;;;24.97;100.00
36014;BME280;22275;43.208;27.620;2023-08-12T05:40:55;101663.03;;;25.37;100.00
36014;BME280;22275;43.208;27.620;2023-08-12T05:43:22;101667.53;;;25.62;100.00
36014;BME280;22275;43.208;27.620;2023-08-12T05:45:49;101656.97;;;25.43;100.00
36014;BME280;22275;43.208;27.620;2023-08-12T05:48:16;101662.28;;;25.69;100.00
36014;BME280;22275;43.208;27.620;2023-08-12T05:50:44;101648.47;;;25.64;100.00
36014;BME280;22275;43.208;27.620;2023-08-12T05:53:11;101651.34;;;26.03;100.00
36014;BME280;22275;43.208;27.620;2023-08-12T05:55:38;101659.78;;;26.40;100.00
36014;BME280;22275;43.208;27.620;2023-08-12T05:58:07;101672.31;;;26.25;100.00
36014;BME280;22275;43.208;27.620;2023-08-12T06:00:34;101639.56;;;26.20;100.00
36014;BME280;22275;43.208;27.620;2023-08-12T06:03:03;101659.53;;;26.74;100.00
36014;BME280;22275;43.208;27.620;2023-08-12T06:05:30;101663.94;;;26.75;100.00
36014;BME280;22275;43.208;27.620;2023-08-12T06:07:58;101659.06;;;26.78;100.00
36014;BME280;22275;43.208;27.620;2023-08-12T06:10:25;101650.97;;;26.78;100.00
36014;BME280;22275;43.208;27.620;2023-08-12T06:12:52;101656.50;;;26.85;100.00
36014;BME280;22275;43.208;27.620;2023-08-12T06:15:21;101663.75;;;26.93;100.00
36014;BME280;22275;43.208;27.620;2023-08-12T06:17:48;101652.22;;;26.99;100.00
36014;BME280;22275;43.208;27.620;2023-08-12T06:20:16;101653.50;;;27.19;100.00
36014;BME280;22275;43.208;27.620;2023-08-12T06:22:43;101641.03;;;27.40;100.00
36014;BME280;22275;43.208;27.620;2023-08-12T06:25:13;101654.56;;;27.10;100.00
36014;BME280;22275;43.208;27.620;2023-08-12T06:27:43;101651.19;;;27.00;100.00
36014;BME280;22275;43.208;27.620;2023-08-12T06:30:12;101653.50;;;27.19;100.00
36014;BME280;22275;43.208;27.620;2023-08-12T06:32:41;101647.00;;;27.28;100.00
36014;BME280;22275;43.208;27.620;2023-08-12T06:35:08;101651.31;;;27.45;100.00
36014;BME280;22275;43.208;27.620;2023-08-12T06:37:35;101648.47;;;27.38;100.00
36014;BME280;22275;43.208;27.620;2023-08-12T06:40:03;101640.44;;;27.53;100.00
36014;BME280;22275;43.208;27.620;2023-08-12T06:42:31;101617.97;;;27.75;100.00
36014;BME280;22275;43.208;27.620;2023-08-12T06:44:59;101628.22;;;28.03;100.00
36014;BME280;22275;43.208;27.620;2023-08-12T06:47:26;101636.19;;;27.81;100.00
36014;BME280;22275;43.208;27.620;2023-08-12T06:49:56;101638.88;;;27.81;100.00
36014;BME280;22275;43.208;27.620;2023-08-12T06:52:23;101618.00;;;27.67;100.00
36014;BME280;22275;43.208;27.620;2023-08-12T06:54:51;101623.06;;;27.70;100.00
36014;BME280;22275;43.208;27.620;2023-08-12T06:57:18;101634.31;;;28.05;100.00
36014;BME280;22275;43.208;27.620;2023-08-12T06:59:45;101631.03;;;28.32;100.00
36014;BME280;22275;43.208;27.620;2023-08-12T07:02:15;101637.09;;;28.34;100.00
36014;BME280;22275;43.208;27.620;2023-08-12T07:04:44;101625.97;;;28.29;100.00
36014;BME280;22275;43.208;27.620;2023-08-12T07:07:15;101625.69;;;28.24;100.00
36014;BME280;22275;43.208;27.620;2023-08-12T07:09:42;101619.91;;;28.41;100.00
36014;BME280;22275;43.208;27.620;2023-08-12T07:12:10;101621.03;;;28.32;100.00
36014;BME280;22275;43.208;27.620;2023-08-12T07:14:37;101622.22;;;28.30;100.00
36014;BME280;22275;43.208;27.620;2023-08-12T07:17:04;101614.03;;;28.38;100.00
36014;BME280;22275;43.208;27.620;2023-08-12T07:19:31;101617.81;;;28.66;100.00
36014;BME280;22275;43.208;27.620;2023-08-12T07:21:59;101612.81;;;28.84;100.00
36014;BME280;22275;43.208;27.620;2023-08-12T07:24:27;101613.78;;;28.77;100.00
36014;BME280;22275;43.208;27.620;2023-08-12T07:26:55;101609.84;;;28.65;100.00
36014;BME280;22275;43.208;27.620;2023-08-12T07:29:22;101616.47;;;28.62;100.00
36014;BME280;22275;43.208;27.620;2023-08-12T07:31:49;101597.88;;;28.74;100.00
36014;BME280;22275;43.208;27.620;2023-08-12T07:34:18;101597.75;;;28.96;100.00
36014;BME280;22275;43.208;27.620;2023-08-12T07:36:46;101598.25;;;29.21;100.00
36014;BME280;22275;43.208;27.620;2023-08-12T07:39:13;101607.22;;;28.86;100.00
36014;BME280;22275;43.208;27.620;2023-08-12T07:41:42;101607.66;;;28.89;100.00
36014;BME280;22275;43.208;27.620;2023-08-12T07:44:09;101609.47;;;28.68;100.00
36014;BME280;22275;43.208;27.620;2023-08-12T07:46:36;101596.44;;;28.92;100.00
36014;BME280;22275;43.208;27.620;2023-08-12T07:49:04;101593.88;;;29.20;100.00
36014;BME280;22275;43.208;27.620;2023-08-12T07:51:31;101593.56;;;29.30;100.00
36014;BME280;22275;43.208;27.620;2023-08-12T07:53:58;101598.19;;;29.50;100.00
36014;BME280;22275;43.208;27.620;2023-08-12T07:56:25;101599.66;;;29.53;100.00
36014;BME280;22275;43.208;27.620;2023-08-12T07:58:54;101588.81;;;29.17;100.00
36014;BME280;22275;43.208;27.620;2023-08-12T08:01:22;101593.84;;;29.56;100.00
36014;BME280;22275;43.208;27.620;2023-08-12T08:03:49;101585.72;;;29.77;100.00
36014;BME280;22275;43.208;27.620;2023-08-12T08:06:17;101582.16;;;29.34;100.00
36014;BME280;22275;43.208;27.620;2023-08-12T08:08:44;101580.56;;;29.82;100.00
36014;BME280;22275;43.208;27.620;2023-08-12T08:11:12;101584.28;;;30.09;100.00
36014;BME280;22275;43.208;27.620;2023-08-12T08:13:39;101590.09;;;29.99;100.00
36014;BME280;22275;43.208;27.620;2023-08-12T08:16:08;101589.19;;;29.92;100.00
36014;BME280;22275;43.208;27.620;2023-08-12T08:18:35;101591.97;;;30.27;100.00
36014;BME280;22275;43.208;27.620;2023-08-12T08:21:02;101583.00;;;30.33;100.00
36014;BME280;22275;43.208;27.620;2023-08-12T08:23:29;101583.63;;;30.35;100.00
36014;BME280;22275;43.208;27.620;2023-08-12T08:25:57;101587.81;;;30.31;100.00
36014;BME280;22275;43.208;27.620;2023-08-12T08:28:24;101569.19;;;30.00;100.00
36014;BME280;22275;43.208;27.620;2023-08-12T08:30:51;101578.28;;;30.41;100.00
36014;BME280;22275;43.208;27.620;2023-08-12T08:33:20;101581.72;;;30.56;100.00
36014;BME280;22275;43.208;27.620;2023-08-12T08:35:47;101571.00;;;30.48;100.00
36014;BME280;22275;43.208;27.620;2023-08-12T08:38:15;101564.97;;;29.97;100.00
36014;BME280;22275;43.208;27.620;2023-08-12T08:40:42;101575.50;;;30.07;100.00
36014;BME280;22275;43.208;27.620;2023-08-12T08:43:09;101564.72;;;29.92;100.00
36014;BME280;22275;43.208;27.620;2023-08-12T08:45:37;101571.22;;;29.91;100.00
36014;BME280;22275;43.208;27.620;2023-08-12T08:48:07;101573.47;;;30.15;100.00
36014;BME280;22275;43.208;27.620;2023-08-12T08:50:37;101569.41;;;30.33;100.00
36014;BME280;22275;43.208;27.620;2023-08-12T08:53:05;101565.63;;;30.27;100.00
36014;BME280;22275;43.208;27.620;2023-08-12T08:55:33;101573.31;;;30.24;100.00
36014;BME280;22275;43.208;27.620;2023-08-12T08:58:00;101554.44;;;30.43;100.00
36014;BME280;22275;43.208;27.620;2023-08-12T09:00:28;101558.53;;;30.33;100.00
36014;BME280;22275;43.208;27.620;2023-08-12T09:02:57;101556.44;;;30.35;100.00
36014;BME280;22275;43.208;27.620;2023-08-12T09:05:25;101556.59;;;30.54;100.00
36014;BME280;22275;43.208;27.620;2023-08-12T09:08:01;101547.97;;;30.44;100.00
36014;BME280;22275;43.208;27.620;2023-08-12T09:10:32;101561.03;;;30.28;100.00
36014;BME280;22275;43.208;27.620;2023-08-12T09:13:02;101550.69;;;30.44;100.00
36014;BME280;22275;43.208;27.620;2023-08-12T09:15:29;101550.81;;;30.77;100.00
36014;BME280;22275;43.208;27.620;2023-08-12T09:17:56;101556.97;;;30.45;100.00
36014;BME280;22275;43.208;27.620;2023-08-12T09:20:23;101544.38;;;30.37;100.00
36014;BME280;22275;43.208;27.620;2023-08-12T09:22:57;101545.13;;;30.59;100.00
36014;BME280;22275;43.208;27.620;2023-08-12T09:25:25;101541.16;;;30.61;100.00
36014;BME280;22275;43.208;27.620;2023-08-12T09:27:54;101530.22;;;30.55;100.00
36014;BME280;22275;43.208;27.620;2023-08-12T09:30:22;101531.78;;;30.77;100.00
36014;BME280;22275;43.208;27.620;2023-08-12T09:32:58;101530.31;;;30.68;100.00
36014;BME280;22275;43.208;27.620;2023-08-12T09:35:32;101542.06;;;30.88;100.00
36014;BME280;22275;43.208;27.620;2023-08-12T09:38:03;101520.22;;;31.22;100.00
36014;BME280;22275;43.208;27.620;2023-08-12T09:40:31;101524.63;;;31.23;100.00
36014;BME280;22275;43.208;27.620;2023-08-12T09:42:59;101506.00;;;31.27;100.00
36014;BME280;22275;43.208;27.620;2023-08-12T09:45:26;101513.72;;;31.23;100.00
36014;BME280;22275;43.208;27.620;2023-08-12T09:47:55;101508.28;;;31.23;100.00
36014;BME280;22275;43.208;27.620;2023-08-12T09:50:23;101502.22;;;31.35;100.00
36014;BME280;22275;43.208;27.620;2023-08-12T09:52:51;101503.03;;;31.15;100.00
36014;BME280;22275;43.208;27.620;2023-08-12T09:55:24;101496.34;;;31.31;100.00
36014;BME280;22275;43.208;27.620;2023-08-12T09:57:53;101500.72;;;31.12;100.00
36014;BME280;22275;43.208;27.620;2023-08-12T10:00:21;101491.13;;;31.29;100.00
36014;BME280;22275;43.208;27.620;2023-08-12T10:02:51;101499.13;;;31.64;100.00
36014;BME280;22275;43.208;27.620;2023-08-12T10:05:22;101495.34;;;31.52;100.00
36014;BME280;22275;43.208;27.620;2023-08-12T10:07:52;101500.38;;;31.48;100.00
36014;BME280;22275;43.208;27.620;2023-08-12T10:10:21;101486.09;;;31.40;100.00
36014;BME280;22275;43.208;27.620;2023-08-12T10:12:49;101485.25;;;31.46;100.00
36014;BME280;22275;43.208;27.620;2023-08-12T10:15:20;101499.50;;;31.35;100.00
36014;BME280;22275;43.208;27.620;2023-08-12T10:17:48;101472.47;;;31.40;100.00
36014;BME280;22275;43.208;27.620;2023-08-12T10:20:23;101479.81;;;31.46;100.00
36014;BME280;22275;43.208;27.620;2023-08-12T10:22:53;101480.66;;;31.26;100.00
36014;BME280;22275;43.208;27.620;2023-08-12T10:25:25;101463.25;;;31.80;100.00
36014;BME280;22275;43.208;27.620;2023-08-12T10:28:01;101459.69;;;31.93;100.00
36014;BME280;22275;43.208;27.620;2023-08-12T10:30:29;101476.06;;;31.73;100.00
36014;BME280;22275;43.208;27.620;2023-08-12T10:32:58;101463.69;;;31.38;100.00
36014;BME280;22275;43.208;27.620;2023-08-12T10:35:43;101473.94;;;31.42;100.00
36014;BME280;22275;43.208;27.620;2023-08-12T10:38:16;101463.28;;;31.41;100.00
36014;BME280;22275;43.208;27.620;2023-08-12T10:40:45;101456.78;;;31.55;100.00
36014;BME280;22275;43.208;27.620;2023-08-12T10:43:13;101449.59;;;31.93;100.00
36014;BME280;22275;43.208;27.620;2023-08-12T10:45:42;101451.22;;;32.20;100.00
36014;BME280;22275;43.208;27.620;2023-08-12T10:48:15;101447.56;;;32.46;100.00
36014;BME280;22275;43.208;27.620;2023-08-12T10:50:44;101455.16;;;32.31;100.00
36014;BME280;22275;43.208;27.620;2023-08-12T10:53:22;101455.84;;;32.13;100.00
36014;BME280;22275;43.208;27.620;2023-08-12T10:55:54;101445.69;;;32.47;100.00
36014;BME280;22275;43.208;27.620;2023-08-12T10:58:27;101442.22;;;32.64;100.00
36014;BME280;22275;43.208;27.620;2023-08-12T11:00:55;101439.34;;;32.90;100.00
36014;BME280;22275;43.208;27.620;2023-08-12T11:03:23;101435.00;;;32.83;100.00
36014;BME280;22275;43.208;27.620;2023-08-12T11:05:52;101432.34;;;33.01;100.00
36014;BME280;22275;43.208;27.620;2023-08-12T11:08:25;101429.53;;;32.83;100.00
36014;BME280;22275;43.208;27.620;2023-08-12T11:10:56;101454.81;;;32.72;100.00
36014;BME280;22275;43.208;27.620;2023-08-12T11:13:27;101443.13;;;32.52;100.00
36014;BME280;22275;43.208;27.620;2023-08-12T11:16:06;101452.69;;;32.74;100.00
36014;BME280;22275;43.208;27.620;2023-08-12T11:18:34;101438.34;;;32.85;100.00
36014;BME280;22275;43.208;27.620;2023-08-12T11:21:02;101421.81;;;33.05;100.00
36014;BME280;22275;43.208;27.620;2023-08-12T11:23:30;101432.25;;;32.38;100.00
36014;BME280;22275;43.208;27.620;2023-08-12T11:26:00;101417.19;;;33.05;100.00
36014;BME280;22275;43.208;27.620;2023-08-12T11:28:28;101425.75;;;32.39;100.00
36014;BME280;22275;43.208;27.620;2023-08-12T11:30:55;101434.34;;;32.43;100.00
36014;BME280;22275;43.208;27.620;2023-08-12T11:33:23;101426.38;;;32.41;100.00
36014;BME280;22275;43.208;27.620;2023-08-12T11:35:51;101428.81;;;32.63;100.00
36014;BME280;22275;43.208;27.620;2023-08-12T11:38:18;101426.38;;;32.41;100.00
36014;BME280;22275;43.208;27.620;2023-08-12T11:40:46;101431.44;;;32.38;100.00
36014;BME280;22275;43.208;27.620;2023-08-12T11:43:15;101424.75;;;32.34;100.00
36014;BME280;22275;43.208;27.620;2023-08-12T11:45:43;101415.72;;;31.63;100.00
36014;BME280;22275;43.208;27.620;2023-08-12T11:48:10;101430.72;;;31.98;100.00
36014;BME280;22275;43.208;27.620;2023-08-12T11:50:38;101408.22;;;32.22;100.00
36014;BME280;22275;43.208;27.620;2023-08-12T11:53:06;101417.50;;;32.53;100.00
36014;BME280;22275;43.208;27.620;2023-08-12T11:55:33;101410.69;;;32.75;100.00
36014;BME280;22275;43.208;27.620;2023-08-12T11:58:01;101407.84;;;32.63;100.00
36014;BME280;22275;43.208;27.620;2023-08-12T12:00:30;101416.78;;;32.32;100.00
36014;BME280;22275;43.208;27.620;2023-08-12T12:02:58;101426.38;;;32.41;100.00
36014;BME280;22275;43.208;27.620;2023-08-12T12:05:26;101414.25;;;32.37;100.00
36014;BME280;22275;43.208;27.620;2023-08-12T12:07:54;101412.88;;;32.15;100.00
36014;BME280;22275;43.208;27.620;2023-08-12T12:10:25;101399.50;;;31.87;100.00
36014;BME280;22275;43.208;27.620;2023-08-12T12:12:55;101413.97;;;31.95;100.00
36014;BME280;22275;43.208;27.620;2023-08-12T12:15:22;101412.69;;;31.97;100.00
36014;BME280;22275;43.208;27.620;2023-08-12T12:17:52;101406.88;;;31.74;100.00
36014;BME280;22275;43.208;27.620;2023-08-12T12:20:19;101412.78;;;31.45;100.00
36014;BME280;22275;43.208;27.620;2023-08-12T12:22:47;101405.44;;;31.65;100.00
36014;BME280;22275;43.208;27.620;2023-08-12T12:25:15;101418.34;;;32.02;100.00
36014;BME280;22275;43.208;27.620;2023-08-12T12:27:45;101416.94;;;31.80;100.00
36014;BME280;22275;43.208;27.620;2023-08-12T12:30:16;101425.19;;;32.24;100.00
36014;BME280;22275;43.208;27.620;2023-08-12T12:32:45;101413.09;;;32.07;100.00
36014;BME280;22275;43.208;27.620;2023-08-12T12:35:15;101414.19;;;31.86;100.00
36014;BME280;22275;43.208;27.620;2023-08-12T12:37:42;101405.03;;;31.55;100.00